Terminal Aerodrome Forecast
Issued by NWS

Home | Current Version | Previous Version | Text Only | Print | Product List | Glossary Off
Versions: 1 2 3 4 5 6 7 8 9 10 11 12 13 14 15 16 17 18 19 20

000
FTUS43 KICT 260522
TAFSLN
TAF
KSLN 260522Z 2606/2706 08009KT P6SM SCT020 BKN035
     FM260800 11010KT P6SM SCT009 BKN014
      TEMPO 2610/2614 6SM BR OVC009
     FM261600 15015G24KT P6SM SCT012 BKN028
     FM261800 16018G27KT P6SM SCT020 BKN035
     FM262200 16018G27KT P6SM VCTS BKN040CB=

USA.gov is the U.S. government's official web portal to all federal, state and local government web resources and services.